CheckWX is a tool to help pilots better visualize weather data.  It is not intended as a substitute for an official pre-flight weather briefing.

10:09:12 UTC

KSAC TAF
Sacramento Executive Airport
Sacramento, California, USA
KSAC 260520Z 2606/2706 21011KT P6SM FEW250 FM262000 22013G19KT P6SM SCT250

Jun-26@
06:00 UTC

Jun-26 @ 06:00 UTC

Jun-26@
20:00 UTC

Jun-26 @ 20:00 UTC

KSAC 260520Z 2606/2706 21011KT P6SM FEW250
Wind
  • 210° at 11 KTS
Cloud Levels
  • Few at 25,000' AGL

Jun-26@
20:00 UTC

Jun-26 @ 20:00 UTC

Jun-27@
06:00 UTC

Jun-27 @ 06:00 UTC

FM262000 22013G19KT P6SM SCT250

From

From Standard forecast or significant change

Wind
  • 220° at 13 KTS
  • {Gusting to 19 KTS
Cloud Levels
  • Scattered at 25,000' AGL